Zion Crossroads, Virginia
Current Conditions -  °F | °C
As of 8:35 PM on Monday 20 Oct 2014 (Local Time) from KGVE Reporting Station
Broken Clouds Broken Clouds  
Wind Chill: 54°   Ceiling: 8000
Heat Index: 54°   Visibility: 10mi
Dew Point: 49°   Wind: 5mph
Humidity: 83%   Direction: 210°SSW
Pressure: 29.95"   Gusts: NA
Location:  38.0919°N, 78.1851°W
Report Text: KGVE 210035Z AUTO 21004KT 10SM BKN080 BKN090 12/10 A2995 RMK AO1 T01240095
Loading
Personal Weather Stations






























Interactive Weather Map
Tropical Storm Tracking
New forecast layout! Learn more

10-Day Weather Forecast

Advertisements
Track Severe Weather on mobile